Latest Coastal Weather Observations for Cooktown

IDQ60701

Issued at 12:01 am EST Wednesday 1 June 2016 (issued every 10 minutes, with the page automatically refreshed every 10 minutes)

About coastal observations | Map of coastal stations | Coastal observations for QLD | Marine services | Other Formats
Station Details ID: 031209 Name: COOKTOWN AIRPORT Lat: -15.45 Lon: 145.19 Height: 4.8 m
Data from the previous 72 hours. | See also: Recent months at Cooktown
Date/Time
EST
Temp

°C
Wind Pressure Rain
since 9am
mm
Weather Cloud Vis
km
Sea
Height
m
Swell
Dir
 
Speed
knots
Gust
knots
hPa Trend Height
m
Period
s
Dir
01/12:00am 25.7 SE 13 22 1016.0 - 5.2 - Cloudy 10 - - - -
 
Date/Time
EST
Temp

°C
Wind Pressure Rain
since 9am
mm
Weather Cloud Vis
km
Sea
Height
m
Swell
Dir
 
Speed
knots
Gust
knots
hPa Trend Height
m
Period
s
Dir
31/11:30pm 25.8 ESE 14 22 1016.4 - 5.2 - Partly cloudy 10 - - - -
31/11:00pm 25.7 SE 12 21 1016.6 - 5.2 - Partly cloudy 10 - - - -
31/10:30pm 25.9 ESE 13 21 1016.9 - 5.2 - Partly cloudy 10 - - - -
31/10:00pm 26.1 ESE 13 22 1016.8 - 5.2 - Partly cloudy 10 - - - -
31/09:30pm 25.9 SE 13 22 1016.7 - 5.2 - Partly cloudy 10 - - - -
31/09:00pm 25.8 ESE 12 18 1016.7 - 5.2 - Cloudy 10 - - - -
31/08:30pm 26.0 ESE 12 18 1016.5 - 5.2 - Partly cloudy 10 - - - -
31/08:00pm 26.0 ESE 13 20 1016.2 - 5.2 - Partly cloudy 10 - - - -
31/07:30pm 25.8 ESE 12 17 1015.9 - 5.2 - Partly cloudy 10 - - - -
31/07:00pm 25.9 ESE 12 19 1015.7 - 5.2 - Partly cloudy 10 - - - -
31/06:30pm 26.1 SE 11 18 1015.6 - 5.2 - Partly cloudy 10 - - - -
31/06:00pm 26.0 SE 11 19 1015.4 - 5.2 - Cloudy 10 - - - -
31/05:30pm 26.1 SE 11 20 1015.2 - 5.2 - Partly cloudy 10 - - - -
31/05:00pm 26.2 SE 10 17 1015.0 - 5.2 - Partly cloudy 10 - - - -
31/04:30pm 26.5 ESE 11 16 1014.8 - 5.2 - Partly cloudy 10 - - - -
31/04:00pm 26.7 ESE 13 22 1014.6 - 5.2 - Partly cloudy 10 - - - -
31/03:30pm 27.0 ESE 12 19 1014.6 - 5.2 - Partly cloudy 10 - - - -
31/03:00pm 27.1 ESE 12 16 1014.6 - 5.2 - Cloudy 10 - - - -
31/02:30pm 27.3 ESE 14 19 1014.6 - 5.2 - Partly cloudy 10 - - - -
31/02:00pm 26.3 ESE 11 15 1014.7 - 5.2 - Partly cloudy 10 - - - -
31/01:56pm 25.9 SE 10 16 1014.8 - 5.2 - Partly cloudy 10 - - - -
31/01:31pm 25.1 SE 10 17 1015.3 - 2.2 - Partly cloudy 5 - - - -
31/01:30pm 25.7 SE 10 16 1015.4 - 1.8 - Partly cloudy 10 - - - -
31/01:05pm 25.4 SE 11 17 1015.6 - 1.4 - Partly cloudy 10 - - - -
31/01:00pm 25.3 SE 10 17 1015.7 - 1.4 - Partly cloudy 10 - - - -
31/12:50pm 25.1 ESE 13 19 1016.0 - 1.4 - Partly cloudy 5 - - - -
31/12:37pm 27.0 ESE 11 16 1016.0 - 1.2 - Partly cloudy 10 - - - -
31/12:30pm 26.6 SE 12 19 1016.2 - 1.2 - Partly cloudy 10 - - - -
31/12:13pm 26.7 SE 10 17 1016.5 - 1.2 - Partly cloudy 10 - - - -
31/12:00pm 25.4 ESE 10 15 1016.9 - 1.2 - Cloudy 10 - - - -
31/11:45am 25.5 SE 10 15 1017.0 - 1.2 - Partly cloudy 10 - - - -
31/11:36am 25.5 SSE 10 15 1017.1 - 1.2 - Partly cloudy 10 - - - -
31/11:33am 25.6 SSE 10 15 1017.1 - 1.2 - Partly cloudy 10 - - - -
31/11:30am 26.0 SSE 10 13 1017.2 - 1.2 - Partly cloudy 10 - - - -
31/11:16am 25.5 ESE 13 19 1017.3 - 1.2 - Partly cloudy 4 - - - -
31/11:00am 27.8 ESE 11 16 1017.2 - 0.0 - Partly cloudy 10 - - - -
31/10:30am 28.3 ESE 13 19 1017.3 - 0.0 - Partly cloudy 10 - - - -
31/10:00am 28.6 ESE 11 15 1017.5 - 0.0 - Partly cloudy 10 - - - -
31/09:48am 28.1 ESE 9 16 1017.4 - 0.0 - Partly cloudy 10 - - - -
31/09:30am 26.4 SE 7 13 1017.5 - 0.0 - Partly cloudy 10 - - - -
31/09:07am 26.6 SE 10 15 1017.4 - 0.0 - Partly cloudy 10 - - - -
31/09:00am 28.0 E 11 13 1017.3 R 0.4 Fine Partly cloudy 35 - - - -
31/08:30am 26.6 ESE 6 10 1016.9 - 0.4 - Partly cloudy 10 - - - -
31/08:00am 25.3 SE 8 12 1016.8 - 0.4 - Partly cloudy 10 - - - -
31/07:30am 26.1 SSE 10 15 1016.4 - 0.4 - Partly cloudy 10 - - - -
31/07:00am 25.8 ESE 10 14 1016.1 - 0.4 - Partly cloudy 10 - - - -
31/06:30am 25.4 ESE 10 15 1015.8 - 0.4 - - 10 - - - -
31/06:00am 25.6 ESE 11 15 1015.5 - 0.4 - Mostly clear 10 - - - -
31/05:30am 25.9 E 12 18 1015.3 - 0.4 - Partly cloudy 10 - - - -
31/05:00am 25.8 E 12 19 1015.2 - 0.4 - Partly cloudy 10 - - - -
31/04:30am 25.5 E 10 16 1015.2 - 0.4 - Partly cloudy 10 - - - -
31/04:00am 25.6 ESE 11 15 1014.9 - 0.4 - Partly cloudy 10 - - - -
31/03:30am 25.6 ESE 12 15 1015.0 - 0.4 - Partly cloudy 10 - - - -
31/03:00am 25.8 ESE 11 15 1015.1 - 0.4 - Cloudy 10 - - - -
31/02:30am 25.8 ESE 12 16 1015.3 - 0.4 - Partly cloudy 10 - - - -
31/02:00am 25.8 ESE 10 13 1015.5 - 0.4 - Partly cloudy 10 - - - -
31/01:30am 25.4 ESE 10 17 1015.8 - 0.4 - Partly cloudy 10 - - - -
31/01:00am 25.4 ESE 11 16 1016.1 - 0.4 - Partly cloudy 10 - - - -
31/12:30am 24.8 ESE 9 13 1016.3 - 0.4 - - 10 - - - -
31/12:00am 24.7 SE 9 12 1016.4 - 0.4 - - 10 - - - -
 
Date/Time
EST
Temp

°C
Wind Pressure Rain
since 9am
mm
Weather Cloud Vis
km
Sea
Height
m
Swell
Dir
 
Speed
knots
Gust
knots
hPa Trend Height
m
Period
s
Dir
30/11:30pm 25.2 ESE 13 23 1016.7 - 0.4 - Partly cloudy 10 - - - -
30/11:00pm 25.5 ESE 7 11 1016.5 - 0.4 - Partly cloudy 10 - - - -
30/10:30pm 25.2 ESE 8 11 1016.6 - 0.4 - Partly cloudy 10 - - - -
30/10:00pm 25.4 SE 10 17 1016.6 - 0.4 - Partly cloudy 10 - - - -
30/09:30pm 25.2 SE 9 16 1016.7 - 0.4 - Partly cloudy 10 - - - -
30/09:00pm 24.9 SE 12 19 1016.6 - 0.4 - Cloudy 8 - - - -
30/08:45pm 26.2 SE 12 19 1016.6 - 0.0 - Partly cloudy 10 - - - -
30/08:30pm 26.1 SE 10 14 1016.6 - 0.0 - Partly cloudy 10 - - - -
30/08:00pm 25.9 SE 8 12 1016.3 - 0.0 - Partly cloudy 10 - - - -
30/07:55pm 25.9 SE 8 12 1016.2 - 0.0 - Partly cloudy 10 - - - -
30/07:30pm 25.7 SE 8 12 1016.0 - 0.0 - Partly cloudy 10 - - - -
30/07:00pm 25.5 SE 8 11 1015.6 - 0.0 - Partly cloudy 10 - - - -
30/06:30pm 25.6 SE 8 13 1015.2 - 0.0 - Partly cloudy 10 - - - -
30/06:18pm 25.7 SE 8 15 1015.2 - 0.0 - Partly cloudy 10 - - - -
30/06:00pm 25.7 SE 8 11 1015.0 - 0.0 - Mostly clear 10 - - - -
30/05:30pm 26.0 SE 9 15 1014.9 - 0.0 - Partly cloudy 10 - - - -
30/05:29pm 25.9 SE 9 15 1014.9 - 0.0 - Partly cloudy 10 - - - -
30/05:00pm 26.2 SE 10 16 1014.8 - 0.0 - Partly cloudy 10 - - - -
30/04:58pm 26.1 SE 10 16 1014.8 - 0.0 - Partly cloudy 10 - - - -
30/04:30pm 27.2 SE 10 15 1014.7 - 0.0 - Partly cloudy 10 - - - -
30/04:00pm 27.2 SE 12 19 1014.5 - 0.0 - Partly cloudy 10 - - - -
30/03:30pm 27.4 SE 11 15 1014.4 - 0.0 - Partly cloudy 10 - - - -
30/03:00pm 27.6 SE 10 15 1014.5 - 0.0 - Cloudy 10 - - - -
30/02:30pm 27.7 SE 12 18 1014.7 - 0.0 - Partly cloudy 10 - - - -
30/02:00pm 28.8 ESE 11 16 1014.9 - 0.0 - Partly cloudy 10 - - - -
30/01:30pm 29.5 E 14 17 1015.2 - 0.0 - Partly cloudy 10 - - - -
30/01:00pm 28.8 E 13 19 1015.6 - 0.0 - Partly cloudy 10 - - - -
30/12:30pm 29.6 E 14 19 1016.2 - 0.0 - Partly cloudy 10 - - - -
30/12:00pm 28.2 ESE 13 21 1016.7 - 0.0 - Partly cloudy 10 - - - -
30/11:30am 29.0 E 14 18 1017.1 - 0.0 - Partly cloudy 10 - - - -
30/11:00am 28.7 ESE 13 20 1017.2 - 0.0 - Partly cloudy 10 - - - -
30/10:30am 27.6 ESE 13 19 1017.4 - 0.0 - Partly cloudy 10 - - - -
30/10:00am 27.9 E 13 17 1017.4 - 0.0 - Partly cloudy 10 - - - -
30/09:30am 28.1 ESE 13 17 1017.4 - 0.0 - Partly cloudy 10 - - - -
30/09:00am 27.1 ESE 13 18 1017.2 R 0.2 Fine Mostly clear 40 - - - -
30/08:30am 26.7 ESE 12 15 1016.9 - 0.2 - - 10 - - - -
30/08:00am 26.5 ESE 9 14 1016.6 - 0.2 - Partly cloudy 10 - - - -
30/07:30am 25.8 ESE 9 12 1016.3 - 0.2 - - 10 - - - -
30/07:00am 25.3 ESE 10 17 1016.1 - 0.2 - - 10 - - - -
30/06:30am 25.2 ESE 9 14 1015.9 - 0.2 - Partly cloudy 10 - - - -
30/06:00am 25.1 ESE 8 13 1015.6 - 0.2 - Partly cloudy 10 - - - -
30/05:30am 25.5 ESE 9 13 1015.5 - 0.2 - Partly cloudy 10 - - - -
30/05:00am 25.3 ESE 9 14 1015.2 - 0.2 - Partly cloudy 10 - - - -
30/04:30am 25.2 ESE 10 16 1015.1 - 0.2 - Partly cloudy 10 - - - -
30/04:00am 25.2 ESE 6 8 1014.9 - 0.2 - Partly cloudy 10 - - - -
30/03:30am 25.2 ESE 7 14 1014.9 - 0.2 - Partly cloudy 10 - - - -
30/03:00am 25.2 ESE 7 10 1015.1 - 0.2 - Mostly clear 10 - - - -
30/02:30am 25.2 ESE 9 12 1015.2 - 0.2 - Partly cloudy 10 - - - -
30/02:00am 25.4 ESE 7 11 1015.5 - 0.2 - Partly cloudy 10 - - - -
30/01:30am 25.0 ESE 7 11 1015.4 - 0.2 - Partly cloudy 10 - - - -
30/01:00am 25.2 ESE 7 11 1015.4 - 0.2 - Partly cloudy 10 - - - -
30/12:30am 25.2 ESE 6 9 1015.8 - 0.2 - Partly cloudy 10 - - - -
30/12:00am 25.1 SE 6 9 1015.8 - 0.2 - Cloudy 10 - - - -
 
Date/Time
EST
Temp

°C
Wind Pressure Rain
since 9am
mm
Weather Cloud Vis
km
Sea
Height
m
Swell
Dir
 
Speed
knots
Gust
knots
hPa Trend Height
m
Period
s
Dir
29/11:30pm 25.2 ESE 7 11 1016.0 - 0.2 - Partly cloudy 10 - - - -
29/11:00pm 25.0 ESE 7 10 1016.1 - 0.2 - Partly cloudy 10 - - - -
29/10:30pm 24.4 ESE 6 8 1016.3 - 0.2 - - 10 - - - -
29/10:00pm 24.6 ESE 5 7 1016.3 - 0.2 - Partly cloudy 10 - - - -
29/09:30pm 24.8 SE 5 8 1016.3 - 0.2 - - 10 - - - -
29/09:00pm 24.4 ESE 7 8 1016.0 - 0.2 - - 10 - - - -
29/08:30pm 24.6 ESE 7 8 1015.8 - 0.2 - - 10 - - - -
29/08:00pm 25.1 ESE 6 9 1015.6 - 0.2 - Partly cloudy 10 - - - -
29/07:30pm 24.9 ESE 6 9 1015.3 - 0.2 - Partly cloudy 10 - - - -
29/07:00pm 24.9 ESE 6 8 1014.9 - 0.2 - Partly cloudy 10 - - - -
29/06:30pm 25.0 ESE 5 7 1014.6 - 0.2 - - 10 - - - -
29/06:00pm 25.2 E 7 8 1014.6 - 0.2 - - 10 - - - -
29/05:30pm 26.2 E 9 11 1014.5 - 0.2 - - 10 - - - -
29/05:21pm 26.4 E 9 13 1014.5 - 0.2 - Partly cloudy 10 - - - -
29/05:00pm 26.3 E 9 12 1014.4 - 0.2 - Partly cloudy 10 - - - -
29/04:48pm 27.2 E 9 12 1014.3 - 0.2 - Partly cloudy 10 - - - -
29/04:30pm 27.4 E 10 13 1014.2 - 0.2 - Partly cloudy 10 - - - -
29/04:00pm 28.3 E 10 14 1014.0 - 0.2 - Partly cloudy 10 - - - -
29/03:30pm 27.9 E 10 14 1013.9 - 0.2 - Partly cloudy 10 - - - -
29/03:00pm 28.0 E 12 15 1014.1 - 0.2 - Mostly cloudy 10 - - - -
29/02:30pm 27.3 ESE 10 14 1014.2 - 0.2 - Partly cloudy 10 - - - -
29/02:00pm 28.0 ESE 9 13 1014.2 - 0.2 - Partly cloudy 10 - - - -
29/01:30pm 28.6 E 10 14 1014.6 - 0.2 - Partly cloudy 10 - - - -
29/01:00pm 28.7 E 11 15 1014.8 - 0.2 - Partly cloudy 10 - - - -
29/12:30pm 27.8 E 10 13 1015.1 - 0.2 - Partly cloudy 10 - - - -
29/12:00pm 28.6 ESE 10 13 1015.3 - 0.2 - Mostly clear 10 - - - -
29/11:30am 28.4 ESE 10 13 1015.4 - 0.2 - Partly cloudy 10 - - - -
29/11:00am 28.2 E 12 15 1015.7 - 0.2 - Partly cloudy 10 - - - -
29/10:30am 28.1 E 11 14 1015.8 - 0.0 - - 10 - - - -
29/10:00am 27.6 E 11 14 1016.0 - 0.0 - Partly cloudy 10 - - - -
29/09:30am 27.5 ESE 10 13 1016.3 - 0.0 - Partly cloudy 10 - - - -
29/09:19am 27.7 SE 7 11 1016.3 - 0.0 - Partly cloudy 10 - - - -
29/09:02am 26.8 S 4 6 1016.2 - 0.0 - Partly cloudy 10 - - - -
29/09:00am 26.5 S 4 6 1016.2 - 0.2 - Partly cloudy 10 - - - -
29/08:34am 25.1 S 3 5 1016.0 - 0.2 - Partly cloudy 10 - - - -
29/08:30am 24.9 SSW 1 4 1016.0 - 0.2 - Partly cloudy 10 - - - -
29/08:00am 23.3 S 1 5 1015.6 - 0.2 - Partly cloudy 10 - - - -
29/07:30am 22.6 N 3 6 1015.3 - 0.2 - Partly cloudy 9 - - - -
29/07:18am 22.2 NW 3 4 1015.2 - 0.0 - Partly cloudy 10 - - - -
29/07:16am 22.2 NW 3 4 1015.2 - 0.0 - Partly cloudy 10 - - - -
29/07:00am 22.0 NNW 3 3 1015.0 - 0.0 - Partly cloudy 10 - - - -
29/06:44am 21.5 CALM 0 0 1014.9 - 0.0 - Partly cloudy 10 - - - -
29/06:30am 21.6 CALM 0 0 1014.7 - 0.0 - Partly cloudy 10 - - - -
29/06:00am 21.6 W 1 3 1014.2 - 0.0 - Mostly clear 10 - - - -
29/05:30am 21.4 WNW 3 5 1013.9 - 0.0 - Partly cloudy 10 - - - -
29/05:00am 21.8 WNW 1 5 1013.6 - 0.0 - - 10 - - - -
29/04:30am 21.7 CALM 0 0 1013.4 - 0.0 - Partly cloudy 10 - - - -
29/04:00am 21.6 CALM 0 0 1013.3 - 0.0 - Partly cloudy 10 - - - -
29/03:30am 21.7 CALM 0 0 1013.1 - 0.0 - - 10 - - - -
29/03:00am 22.1 WNW 3 4 1013.3 - 0.0 - Mostly cloudy 10 - - - -
29/02:58am 22.0 WNW 3 4 1013.3 - 0.0 - Partly cloudy 10 - - - -
29/02:39am 22.0 CALM 0 0 1013.1 - 0.0 - Partly cloudy 10 - - - -
29/02:30am 21.8 CALM 0 0 1013.1 - 0.0 - Partly cloudy 7 - - - -
29/02:24am 22.1 CALM 0 0 1013.2 - 0.0 - Partly cloudy 10 - - - -
29/02:05am 22.2 CALM 0 0 1013.4 - 0.0 - Partly cloudy 4 - - - -
29/02:00am 22.5 CALM 0 0 1013.4 - 0.0 - Partly cloudy 10 - - - -
29/01:30am 22.4 CALM 0 0 1013.5 - 0.0 - - 10 - - - -
29/01:00am 23.1 CALM 0 0 1013.7 - 0.0 - - 7 - - - -
29/12:41am 23.2 CALM 0 0 1013.8 - 0.0 - Partly cloudy 10 - - - -
29/12:30am 23.2 CALM 0 0 1013.8 - 0.0 - Partly cloudy 10 - - - -
29/12:25am 23.3 CALM 0 0 1013.9 - 0.0 - Partly cloudy 10 - - - -

Other Formats:

Comma delimited format used in spreadsheet applications
http://www.bom.gov.au/fwo/IDQ60701/IDQ60701.95283.axf

JavaScript Object Notation format (JSON) in row-major order
http://www.bom.gov.au/fwo/IDQ60701/IDQ60701.95283.json